createdAt,value
2018-03-16T00:01:37.932Z,19.17
2018-03-16T00:04:04.186Z,18.60
2018-03-16T00:06:30.601Z,17.43
2018-03-16T00:08:56.842Z,19.17
2018-03-16T00:11:23.065Z,18.97
2018-03-16T00:13:49.365Z,17.93
2018-03-16T00:16:15.624Z,19.53
2018-03-16T00:18:41.957Z,19.53
2018-03-16T00:21:08.232Z,18.60
2018-03-16T00:23:34.468Z,19.47
2018-03-16T00:26:00.921Z,19.23
2018-03-16T00:28:27.152Z,18.87
2018-03-16T00:30:53.407Z,19.63
2018-03-16T00:33:19.658Z,18.17
2018-03-16T00:35:45.906Z,19.97
2018-03-16T00:38:12.372Z,19.60
2018-03-16T00:40:38.633Z,19.03
2018-03-16T00:43:04.857Z,19.23
2018-03-16T00:45:31.253Z,20.07
2018-03-16T00:47:57.512Z,19.10
2018-03-16T00:50:23.840Z,19.73
2018-03-16T00:52:50.146Z,19.73
2018-03-16T00:55:16.368Z,19.60
2018-03-16T00:57:42.815Z,19.60
2018-03-16T01:00:09.095Z,18.00
2018-03-16T01:02:35.369Z,18.40
2018-03-16T01:05:01.606Z,18.80
2018-03-16T01:07:27.868Z,19.07
2018-03-16T01:09:54.359Z,18.47
2018-03-16T01:12:20.589Z,19.03
2018-03-16T01:14:46.829Z,18.80
2018-03-16T01:17:13.167Z,18.83
2018-03-16T01:19:39.429Z,19.17
2018-03-16T01:22:05.761Z,18.50
2018-03-16T01:24:32.021Z,20.03
2018-03-16T01:26:58.244Z,20.20
2018-03-16T01:29:24.693Z,19.17
2018-03-16T01:31:50.916Z,17.57
2018-03-16T01:34:17.145Z,18.97
2018-03-16T01:36:43.392Z,20.23
2018-03-16T01:39:09.617Z,18.70
2018-03-16T01:41:35.991Z,19.13
2018-03-16T01:44:02.233Z,18.90
2018-03-16T01:46:28.474Z,20.60
2018-03-16T01:48:54.908Z,19.10
2018-03-16T01:51:21.156Z,19.50
2018-03-16T01:53:47.376Z,20.37
2018-03-16T01:56:13.624Z,19.53
2018-03-16T01:58:39.840Z,19.90
2018-03-16T02:01:06.288Z,20.10
2018-03-16T02:03:32.600Z,19.97
2018-03-16T02:05:58.848Z,19.47
2018-03-16T02:08:25.196Z,20.47
2018-03-16T02:10:51.440Z,20.37
2018-03-16T02:13:17.785Z,19.20
2018-03-16T02:15:44.040Z,19.13
2018-03-16T02:18:10.280Z,20.07
2018-03-16T02:20:36.732Z,20.50
2018-03-16T02:23:03.004Z,20.03
2018-03-16T02:25:29.239Z,19.27
2018-03-16T02:27:55.492Z,19.67
2018-03-16T02:30:21.721Z,20.90
2018-03-16T02:32:48.075Z,21.87
2018-03-16T02:35:14.324Z,20.63
2018-03-16T02:37:40.621Z,20.20
2018-03-16T02:40:06.973Z,20.23
2018-03-16T02:42:33.196Z,19.80
2018-03-16T02:44:59.448Z,20.87
2018-03-16T02:47:25.677Z,18.97
2018-03-16T02:49:51.921Z,20.17
2018-03-16T02:52:18.297Z,19.80
2018-03-16T02:54:44.553Z,21.10
2018-03-16T02:57:10.780Z,19.00
2018-03-16T02:59:38.278Z,19.07
2018-03-16T03:02:04.524Z,19.60
2018-03-16T03:04:31.002Z,20.50
2018-03-16T03:06:57.234Z,18.67
2018-03-16T03:09:23.480Z,20.33
2018-03-16T03:11:49.708Z,19.37
2018-03-16T03:14:15.928Z,20.30
2018-03-16T03:16:42.413Z,17.63
2018-03-16T03:19:08.628Z,19.83
2018-03-16T03:21:34.863Z,20.10
2018-03-16T03:24:01.184Z,19.77
2018-03-16T03:26:27.429Z,19.73
2018-03-16T03:28:53.713Z,20.13
2018-03-16T03:31:19.966Z,18.30
2018-03-16T03:33:46.191Z,19.00
2018-03-16T03:36:12.561Z,18.70
2018-03-16T03:38:38.799Z,18.70
2018-03-16T03:41:05.052Z,18.83
2018-03-16T03:43:31.352Z,20.17
2018-03-16T03:45:57.568Z,19.47
2018-03-16T03:48:23.910Z,18.83
2018-03-16T03:50:50.189Z,19.63
2018-03-16T03:53:16.460Z,20.00
2018-03-16T03:55:42.883Z,18.87
2018-03-16T03:58:09.140Z,19.43
2018-03-16T04:00:35.444Z,19.23
2018-03-16T04:03:01.675Z,19.83
2018-03-16T04:05:27.908Z,19.57
2018-03-16T04:07:54.284Z,19.57
2018-03-16T04:10:20.575Z,20.63
2018-03-16T04:12:46.788Z,19.77
2018-03-16T04:15:13.241Z,20.13
2018-03-16T04:17:39.464Z,20.43
2018-03-16T04:20:05.813Z,21.83
2018-03-16T04:22:32.072Z,20.70
2018-03-16T04:24:58.337Z,20.90
2018-03-16T04:27:24.782Z,21.00
2018-03-16T04:29:51.036Z,19.70
2018-03-16T04:32:17.285Z,21.70
2018-03-16T04:34:43.529Z,20.07
2018-03-16T04:37:09.778Z,21.50
2018-03-16T04:39:36.143Z,20.57
2018-03-16T04:42:02.429Z,20.30
2018-03-16T04:44:28.648Z,21.77
2018-03-16T04:46:55.025Z,21.87
2018-03-16T04:49:21.240Z,22.03
2018-03-16T04:51:47.505Z,23.03
2018-03-16T04:54:13.744Z,22.57
2018-03-16T04:56:39.967Z,22.93
2018-03-16T04:59:06.385Z,22.00
2018-03-16T05:01:32.616Z,22.37
2018-03-16T05:03:58.883Z,23.77
2018-03-16T05:06:25.221Z,23.63
2018-03-16T05:08:51.455Z,24.07
2018-03-16T05:11:17.820Z,24.07
2018-03-16T05:13:44.087Z,22.87
2018-03-16T05:16:10.336Z,23.43
2018-03-16T05:18:36.840Z,24.37
2018-03-16T05:21:03.068Z,25.57
2018-03-16T05:23:29.280Z,26.20
2018-03-16T05:25:55.533Z,25.67
2018-03-16T05:28:21.773Z,23.93
2018-03-16T05:30:48.086Z,24.70
2018-03-16T05:33:14.372Z,25.97
2018-03-16T05:35:40.623Z,25.13
2018-03-16T05:38:07.014Z,27.53
2018-03-16T05:40:33.284Z,28.33
2018-03-16T05:42:59.541Z,27.27
2018-03-16T05:45:25.780Z,27.83
2018-03-16T05:47:52.020Z,26.40
2018-03-16T05:50:18.445Z,27.67
2018-03-16T05:52:44.695Z,28.20
2018-03-16T05:55:10.940Z,28.33
2018-03-16T05:57:37.278Z,26.73
2018-03-16T06:00:03.524Z,28.37
2018-03-16T06:02:29.845Z,27.80
2018-03-16T06:04:56.121Z,27.57
2018-03-16T06:07:22.380Z,26.60
2018-03-16T06:09:48.631Z,26.53
2018-03-16T06:12:14.884Z,26.97
2018-03-16T06:14:41.138Z,28.30
2018-03-16T06:17:07.364Z,28.00
2018-03-16T06:19:33.625Z,26.83
2018-03-16T06:21:59.847Z,27.70
2018-03-16T06:24:26.119Z,40.23
2018-03-16T06:26:52.370Z,32.60
2018-03-16T06:29:18.604Z,32.67
2018-03-16T06:31:44.816Z,29.40
2018-03-16T06:34:11.060Z,29.47
2018-03-16T06:36:37.311Z,27.97
2018-03-16T06:39:03.641Z,29.13
2018-03-16T06:41:29.880Z,28.77
2018-03-16T06:43:56.121Z,30.73
2018-03-16T06:46:22.373Z,28.70
2018-03-16T06:48:48.660Z,27.67
2018-03-16T06:51:14.925Z,30.00
2018-03-16T06:53:41.183Z,28.13
2018-03-16T06:56:07.472Z,29.30
2018-03-16T06:58:33.711Z,29.13
2018-03-16T07:00:59.987Z,27.83
2018-03-16T07:03:26.246Z,28.77
2018-03-16T07:05:52.672Z,28.30
2018-03-16T07:08:18.961Z,27.50
2018-03-16T07:10:45.208Z,28.13
2018-03-16T07:13:11.461Z,26.73
2018-03-16T07:15:37.736Z,28.10
2018-03-16T07:18:04.007Z,28.23
2018-03-16T07:20:30.260Z,28.43
2018-03-16T07:22:56.551Z,26.87
2018-03-16T07:25:22.819Z,26.47
2018-03-16T07:27:49.072Z,26.87
2018-03-16T07:30:15.343Z,26.27
2018-03-16T07:32:41.600Z,28.57
2018-03-16T07:35:07.889Z,26.27
2018-03-16T07:37:34.153Z,27.40
2018-03-16T07:40:00.414Z,27.93
2018-03-16T07:42:26.660Z,26.63
2018-03-16T07:44:52.948Z,25.00
2018-03-16T07:47:19.219Z,26.03
2018-03-16T07:49:45.452Z,25.47
2018-03-16T07:52:11.824Z,25.40
2018-03-16T07:54:38.068Z,23.53
2018-03-16T07:57:04.337Z,23.80
2018-03-16T07:59:30.604Z,24.87
2018-03-16T08:01:56.863Z,23.77
2018-03-16T08:04:23.098Z,22.97
2018-03-16T08:06:49.379Z,24.33
2018-03-16T08:09:15.664Z,23.60
2018-03-16T08:11:41.922Z,22.27
2018-03-16T08:14:08.169Z,21.97
2018-03-16T08:16:34.405Z,21.30
2018-03-16T08:19:00.688Z,22.00
2018-03-16T08:21:26.931Z,20.90
2018-03-16T08:23:53.213Z,21.30
2018-03-16T08:26:19.468Z,21.73
2018-03-16T08:28:45.763Z,21.43
2018-03-16T08:31:12.045Z,20.13
2018-03-16T08:33:38.297Z,26.33
2018-03-16T08:36:04.581Z,21.10
2018-03-16T08:38:30.839Z,18.37
2018-03-16T08:40:57.082Z,18.57
2018-03-16T08:43:23.334Z,17.27
2018-03-16T08:45:49.622Z,18.97
2018-03-16T08:48:16.342Z,17.40
2018-03-16T08:50:42.609Z,17.43
2018-03-16T08:53:08.837Z,15.23
2018-03-16T08:55:35.130Z,15.97
2018-03-16T08:58:01.421Z,14.33
2018-03-16T09:00:27.669Z,14.40
2018-03-16T09:02:53.931Z,12.13
2018-03-16T09:05:20.226Z,13.53
2018-03-16T09:07:46.472Z,13.37
2018-03-16T09:10:12.699Z,12.97
2018-03-16T09:12:38.991Z,12.70
2018-03-16T09:15:05.220Z,12.13
2018-03-16T09:17:31.460Z,11.63
2018-03-16T09:19:57.684Z,12.33
2018-03-16T09:22:23.953Z,12.83
2018-03-16T09:24:50.184Z,10.67
2018-03-16T09:27:16.473Z,10.93
2018-03-16T09:29:42.757Z,11.43
2018-03-16T09:32:08.999Z,11.67
2018-03-16T09:34:35.244Z,10.87
2018-03-16T09:37:01.473Z,10.00
2018-03-16T09:39:27.765Z,9.77
2018-03-16T09:41:54.002Z,10.10
2018-03-16T09:44:20.268Z,10.23
2018-03-16T09:46:46.492Z,11.23
2018-03-16T09:49:12.740Z,10.40
2018-03-16T09:51:38.969Z,18.10
2018-03-16T09:54:05.239Z,18.93
2018-03-16T09:56:31.464Z,9.17
2018-03-16T09:58:57.685Z,9.23
2018-03-16T10:01:23.957Z,9.10
2018-03-16T10:03:50.212Z,9.43
2018-03-16T10:06:16.540Z,10.30
2018-03-16T10:08:42.764Z,9.17
2018-03-16T10:11:09.022Z,9.43
2018-03-16T10:13:35.273Z,10.67
2018-03-16T10:16:01.524Z,9.73
2018-03-16T10:18:27.831Z,9.70
2018-03-16T10:20:54.091Z,9.33
2018-03-16T10:23:20.377Z,10.77
2018-03-16T10:25:46.617Z,9.93
2018-03-16T10:28:13.073Z,9.43
2018-03-16T10:30:39.315Z,9.17
2018-03-16T10:33:05.552Z,9.27
2018-03-16T10:35:31.801Z,8.87
2018-03-16T10:37:58.051Z,9.43
2018-03-16T10:40:24.283Z,8.63
2018-03-16T10:42:50.542Z,8.60
2018-03-16T10:45:16.811Z,9.40
2018-03-16T10:47:43.033Z,8.70
2018-03-16T10:50:09.305Z,8.10
2018-03-16T10:55:08.520Z,18.23
2018-03-16T10:57:34.756Z,8.67
2018-03-16T11:00:00.996Z,8.60
2018-03-16T11:02:33.182Z,7.77
2018-03-16T11:05:05.396Z,7.97
2018-03-16T11:10:29.736Z,7.90
2018-03-16T11:12:55.964Z,8.10
2018-03-16T11:15:22.232Z,8.57
2018-03-16T11:17:48.490Z,8.00
2018-03-16T11:20:14.752Z,8.50
2018-03-16T11:22:40.980Z,8.57
2018-03-16T11:25:07.225Z,8.50
2018-03-16T11:27:33.504Z,8.10
2018-03-16T11:29:59.796Z,8.37
2018-03-16T11:32:26.144Z,7.97
2018-03-16T11:34:52.351Z,8.37
2018-03-16T11:37:18.588Z,8.20
2018-03-16T11:39:44.832Z,7.80
2018-03-16T11:42:11.108Z,8.20
2018-03-16T11:44:43.085Z,8.00
2018-03-16T11:47:09.348Z,7.53
2018-03-16T11:49:35.652Z,8.43
2018-03-16T11:52:01.925Z,13.50
2018-03-16T11:54:28.208Z,8.40
2018-03-16T11:56:54.468Z,7.77
2018-03-16T11:59:20.775Z,8.20
2018-03-16T12:01:46.996Z,7.97
2018-03-16T12:04:13.249Z,9.17
2018-03-16T12:06:39.468Z,8.47
2018-03-16T12:09:05.777Z,8.97
2018-03-16T12:11:32.052Z,8.57
2018-03-16T12:13:58.287Z,7.63
2018-03-16T12:16:24.548Z,7.97
2018-03-16T12:18:50.781Z,6.93
2018-03-16T12:21:17.035Z,7.07
2018-03-16T12:23:43.297Z,7.13
2018-03-16T12:26:09.549Z,6.77
2018-03-16T12:28:49.573Z,7.17
2018-03-16T12:31:02.138Z,7.10
2018-03-16T12:33:28.392Z,6.90
2018-03-16T12:35:54.693Z,6.80
2018-03-16T12:38:20.968Z,6.63
2018-03-16T12:40:47.261Z,7.27
2018-03-16T12:43:13.541Z,7.33
2018-03-16T12:45:39.772Z,7.07
2018-03-16T12:48:06.084Z,7.07
2018-03-16T12:50:32.341Z,7.03
2018-03-16T12:52:58.637Z,7.73
2018-03-16T12:55:24.912Z,6.60
2018-03-16T12:57:51.176Z,7.50
2018-03-16T13:00:17.444Z,6.70
2018-03-16T13:02:43.805Z,7.80
2018-03-16T13:05:10.084Z,7.20
2018-03-16T13:07:36.320Z,7.37
2018-03-16T13:10:02.603Z,8.37
2018-03-16T13:12:28.848Z,7.70
2018-03-16T13:14:55.104Z,7.87
2018-03-16T13:17:21.324Z,7.77
2018-03-16T13:19:47.584Z,8.57
2018-03-16T13:22:13.840Z,9.20
2018-03-16T13:24:40.088Z,8.83
2018-03-16T13:27:06.307Z,8.80
2018-03-16T13:29:32.528Z,9.00
2018-03-16T13:31:58.772Z,9.33
2018-03-16T13:34:25.005Z,9.50
2018-03-16T13:36:51.264Z,10.50
2018-03-16T13:39:17.494Z,9.07
2018-03-16T13:41:43.748Z,9.70
2018-03-16T13:44:09.970Z,9.90
2018-03-16T13:46:36.233Z,9.73
2018-03-16T13:49:02.522Z,10.03
2018-03-16T13:51:28.790Z,10.27
2018-03-16T13:53:55.024Z,11.50
2018-03-16T13:56:21.923Z,11.53
2018-03-16T13:58:48.418Z,9.80
2018-03-16T14:01:14.780Z,11.57
2018-03-16T14:03:41.308Z,10.23
2018-03-16T14:06:07.592Z,10.67
2018-03-16T14:08:33.947Z,10.77
2018-03-16T14:11:00.217Z,11.77
2018-03-16T14:13:26.619Z,10.50
2018-03-16T14:15:52.968Z,10.93
2018-03-16T14:18:20.375Z,9.67
2018-03-16T14:20:46.769Z,12.13
2018-03-16T14:23:13.034Z,11.57
2018-03-16T14:25:39.572Z,11.67
2018-03-16T14:28:05.868Z,11.30
2018-03-16T14:30:32.363Z,10.50
2018-03-16T14:32:58.606Z,11.13
2018-03-16T14:35:25.098Z,11.53
2018-03-16T14:37:51.460Z,11.57
2018-03-16T14:40:17.814Z,11.50
2018-03-16T14:42:44.242Z,10.97
2018-03-16T14:45:10.552Z,10.87
2018-03-16T14:47:37.264Z,10.67
2018-03-16T14:50:06.263Z,10.63
2018-03-16T14:52:32.532Z,9.80
2018-03-16T14:54:58.811Z,10.47
2018-03-16T14:57:25.195Z,10.03
2018-03-16T14:59:51.488Z,9.23
2018-03-16T15:02:17.785Z,10.47
2018-03-16T15:04:44.407Z,10.07
2018-03-16T15:07:10.691Z,10.13
2018-03-16T15:09:36.956Z,9.20
2018-03-16T15:12:03.450Z,8.60
2018-03-16T15:14:29.867Z,8.40
2018-03-16T15:16:56.313Z,9.73
2018-03-16T15:19:22.620Z,9.63
2018-03-16T15:21:49.063Z,9.37
2018-03-16T15:24:15.360Z,9.03
2018-03-16T15:26:48.436Z,9.63
2018-03-16T15:29:15.040Z,9.03
2018-03-16T15:31:41.284Z,8.20
2018-03-16T15:34:07.551Z,8.00
2018-03-16T15:36:33.916Z,8.47
2018-03-16T15:39:00.405Z,8.87
2018-03-16T15:41:26.678Z,9.07
2018-03-16T15:43:53.058Z,8.33
2018-03-16T15:46:19.379Z,8.70
2018-03-16T15:48:45.736Z,9.10
2018-03-16T15:51:12.062Z,8.50
2018-03-16T15:53:38.321Z,8.70
2018-03-16T15:56:04.730Z,9.03
2018-03-16T15:58:30.978Z,9.53
2018-03-16T16:00:57.241Z,9.57
2018-03-16T16:03:23.895Z,8.50
2018-03-16T16:05:50.374Z,8.97
2018-03-16T16:08:16.851Z,9.67
2018-03-16T16:10:43.122Z,9.87
2018-03-16T16:13:09.639Z,9.63
2018-03-16T16:15:35.940Z,10.20
2018-03-16T16:18:02.351Z,10.37
2018-03-16T16:20:28.572Z,10.20
2018-03-16T16:22:54.784Z,10.63
2018-03-16T16:25:21.075Z,11.57
2018-03-16T16:27:47.301Z,11.07
2018-03-16T16:30:13.741Z,11.97
2018-03-16T16:32:40.152Z,11.63
2018-03-16T16:35:06.420Z,11.40
2018-03-16T16:37:32.714Z,10.63
2018-03-16T16:39:58.991Z,11.00
2018-03-16T16:42:25.340Z,10.10
2018-03-16T16:44:51.635Z,10.80
2018-03-16T16:47:18.410Z,10.60
2018-03-16T16:49:44.684Z,10.77
2018-03-16T16:52:11.014Z,10.93
2018-03-16T16:54:37.628Z,11.97
2018-03-16T16:57:03.892Z,11.17
2018-03-16T16:59:30.385Z,11.03
2018-03-16T17:01:56.745Z,11.70
2018-03-16T17:04:23.205Z,13.17
2018-03-16T17:06:49.491Z,12.00
2018-03-16T17:09:16.040Z,12.23
2018-03-16T17:11:42.529Z,11.20
2018-03-16T17:14:08.801Z,12.77
2018-03-16T17:16:35.285Z,11.73
2018-03-16T17:19:01.604Z,12.53
2018-03-16T17:21:27.917Z,11.80
2018-03-16T17:23:54.483Z,11.30
2018-03-16T17:26:20.733Z,12.40
2018-03-16T17:28:46.992Z,11.97
2018-03-16T17:31:13.231Z,12.40
2018-03-16T17:33:39.464Z,11.60
2018-03-16T17:36:05.732Z,11.90
2018-03-16T17:38:32.235Z,11.70
2018-03-16T17:40:58.528Z,11.23
2018-03-16T17:43:24.843Z,11.93
2018-03-16T17:45:51.173Z,10.77
2018-03-16T17:48:17.549Z,10.63
2018-03-16T17:50:43.926Z,10.77
2018-03-16T17:53:10.162Z,12.03
2018-03-16T17:55:36.433Z,11.37
2018-03-16T17:58:02.720Z,10.70
2018-03-16T18:00:29.037Z,11.03
2018-03-16T18:02:55.285Z,11.47
2018-03-16T18:05:21.640Z,10.43
2018-03-16T18:07:47.970Z,10.60
2018-03-16T18:10:14.487Z,10.10
2018-03-16T18:12:40.760Z,10.40
2018-03-16T18:15:07.009Z,10.53
2018-03-16T18:17:34.125Z,11.57
2018-03-16T18:20:00.411Z,10.70
2018-03-16T18:22:26.848Z,11.13
2018-03-16T18:24:53.300Z,11.53
2018-03-16T18:27:19.577Z,10.73
2018-03-16T18:29:46.225Z,10.97
2018-03-16T18:32:12.516Z,12.07
2018-03-16T18:34:38.812Z,11.53
2018-03-16T18:37:05.059Z,11.23
2018-03-16T18:39:32.016Z,12.07
2018-03-16T18:41:58.534Z,10.40
2018-03-16T18:44:24.784Z,11.57
2018-03-16T18:46:51.045Z,11.17
2018-03-16T18:49:17.488Z,10.50
2018-03-16T18:51:43.744Z,11.57
2018-03-16T18:54:10.226Z,10.70
2018-03-16T18:56:37.515Z,12.13
2018-03-16T18:59:03.840Z,10.77
2018-03-16T19:01:30.124Z,11.87
2018-03-16T19:03:56.387Z,12.50
2018-03-16T19:06:22.656Z,11.50
2018-03-16T19:08:48.906Z,10.87
2018-03-16T19:11:15.165Z,11.50
2018-03-16T19:13:41.769Z,11.97
2018-03-16T19:16:08.321Z,11.20
2018-03-16T19:18:34.704Z,9.90
2018-03-16T19:21:01.105Z,11.57
2018-03-16T19:23:27.509Z,12.27
2018-03-16T19:25:53.784Z,11.70
2018-03-16T19:28:20.253Z,11.30
2018-03-16T19:30:46.537Z,12.30
2018-03-16T19:33:12.837Z,11.20
2018-03-16T19:35:39.496Z,11.70
2018-03-16T19:38:05.827Z,10.43
2018-03-16T19:40:32.232Z,12.70
2018-03-16T19:42:58.491Z,10.53
2018-03-16T19:45:24.924Z,11.40
2018-03-16T19:47:51.176Z,9.60
2018-03-16T19:50:17.441Z,11.50
2018-03-16T19:52:44.009Z,10.63
2018-03-16T19:55:10.317Z,11.50
2018-03-16T19:57:36.632Z,11.47
2018-03-16T20:00:02.916Z,10.83
2018-03-16T20:02:29.176Z,11.83
2018-03-16T20:04:55.432Z,10.77
2018-03-16T20:07:21.752Z,12.03
2018-03-16T20:09:48.000Z,11.60
2018-03-16T20:12:14.243Z,13.20
2018-03-16T20:14:40.842Z,11.03
2018-03-16T20:17:07.333Z,11.87
2018-03-16T20:19:33.684Z,10.47
2018-03-16T20:22:00.052Z,10.87
2018-03-16T20:24:26.341Z,11.20
2018-03-16T20:26:52.605Z,10.63
2018-03-16T20:29:18.841Z,12.13
2018-03-16T20:31:45.148Z,11.60
2018-03-16T20:34:11.380Z,10.83
2018-03-16T20:36:37.648Z,12.73
2018-03-16T20:39:03.965Z,11.00
2018-03-16T20:41:30.226Z,11.00
2018-03-16T20:43:56.473Z,10.90
2018-03-16T20:46:22.732Z,10.50
2018-03-16T20:48:50.274Z,10.97
2018-03-16T20:51:16.574Z,11.33
2018-03-16T20:53:42.805Z,11.03
2018-03-16T20:56:09.071Z,9.47
2018-03-16T20:58:35.324Z,11.53
2018-03-16T21:01:01.565Z,11.57
2018-03-16T21:03:27.821Z,10.60
2018-03-16T21:08:26.914Z,10.33
2018-03-16T21:10:53.159Z,9.67
2018-03-16T21:13:19.424Z,10.17
2018-03-16T21:15:45.704Z,10.40
2018-03-16T21:18:12.225Z,10.93
2018-03-16T21:20:39.266Z,10.07
2018-03-16T21:23:05.593Z,11.07
2018-03-16T21:25:31.827Z,11.40
2018-03-16T21:27:58.334Z,11.07
2018-03-16T21:30:24.600Z,9.43
2018-03-16T21:32:51.263Z,9.63
2018-03-16T21:35:17.549Z,10.03
2018-03-16T21:37:43.803Z,10.63
2018-03-16T21:40:10.288Z,10.60
2018-03-16T21:42:36.583Z,10.17
2018-03-16T21:45:02.940Z,9.77
2018-03-16T21:47:29.333Z,9.87
2018-03-16T21:49:55.604Z,10.10
2018-03-16T21:52:21.876Z,10.17
2018-03-16T21:54:48.921Z,10.90
2018-03-16T21:57:15.568Z,10.30
2018-03-16T21:59:41.852Z,10.23
2018-03-16T22:02:08.104Z,10.07
2018-03-16T22:04:34.373Z,9.10
2018-03-16T22:07:00.628Z,9.30
2018-03-16T22:09:27.120Z,9.80
2018-03-16T22:11:53.356Z,10.53
2018-03-16T22:14:19.588Z,10.10
2018-03-16T22:16:45.844Z,18.30
2018-03-16T22:19:12.156Z,10.97
2018-03-16T22:21:38.629Z,10.37
2018-03-16T22:24:04.989Z,10.13
2018-03-16T22:26:32.093Z,9.83
2018-03-16T22:28:58.365Z,9.67
2018-03-16T22:31:24.601Z,9.73
2018-03-16T22:33:50.856Z,10.57
2018-03-16T22:36:17.104Z,9.40
2018-03-16T22:38:43.435Z,9.90
2018-03-16T22:41:09.708Z,9.53
2018-03-16T22:43:35.941Z,8.90
2018-03-16T22:46:03.302Z,9.40
2018-03-16T22:48:29.648Z,9.97
2018-03-16T22:50:56.164Z,9.07
2018-03-16T22:53:22.448Z,8.67
2018-03-16T22:55:48.672Z,9.00
2018-03-16T22:58:14.949Z,9.53
2018-03-16T23:00:41.710Z,9.27
2018-03-16T23:03:08.081Z,8.53
2018-03-16T23:05:34.652Z,8.47
2018-03-16T23:08:01.199Z,8.77
2018-03-16T23:10:27.491Z,9.23
2018-03-16T23:12:53.887Z,9.20
2018-03-16T23:15:20.144Z,8.90
2018-03-16T23:17:46.432Z,9.27
2018-03-16T23:20:12.685Z,9.17
2018-03-16T23:22:40.329Z,9.67
2018-03-16T23:25:06.591Z,9.30
2018-03-16T23:27:32.939Z,9.53
2018-03-16T23:29:59.276Z,8.50
2018-03-16T23:32:25.720Z,9.33
2018-03-16T23:34:51.992Z,8.40
2018-03-16T23:37:18.351Z,8.57
2018-03-16T23:39:44.639Z,8.80
2018-03-16T23:42:10.899Z,8.63
2018-03-16T23:44:37.559Z,8.37
2018-03-16T23:47:03.950Z,7.57
2018-03-16T23:49:30.221Z,8.07
2018-03-16T23:51:56.673Z,7.57
2018-03-16T23:54:22.956Z,7.47
2018-03-16T23:56:49.522Z,7.73
2018-03-16T23:59:15.825Z,8.17
